Time;durP1;ratioP1;P1;durP2;ratioP2;P2;SDS_P1;SDS_P2;PMS_P1;PMS_P2;Temp;Humidity;BMP_temperature;BMP_pressure;BME280_temperature;BME280_humidity;BME280_pressure;Samples;Min_cycle;Max_cycle;Signal;HPM_P1;HPM_P2
2022/04/30 00:00:29;;;;;;;19.80;14.30;;;14.20;71.70;;;;;;4997235;28;20484;-77
2022/04/30 00:02:59;;;;;;;19.10;14.00;;;14.20;71.80;;;;;;4999378;28;20888;-77
2022/04/30 00:05:29;;;;;;;16.10;13.70;;;14.20;71.80;;;;;;4993592;28;20463;-77
2022/04/30 00:07:56;;;;;;;16.40;11.30;;;14.20;71.80;;;;;;4999117;28;20485;-77
2022/04/30 00:10:26;;;;;;;17.10;13.60;;;14.20;71.70;;;;;;4994669;28;20474;-78
2022/04/30 00:12:54;;;;;;;17.80;13.50;;;14.20;71.80;;;;;;4995367;28;20458;-77
2022/04/30 00:15:22;;;;;;;15.13;13.57;;;14.20;71.90;;;;;;4994636;28;20547;-77
2022/04/30 00:17:51;;;;;;;15.37;13.63;;;14.20;71.90;;;;;;4994517;28;20493;-77
2022/04/30 00:20:18;;;;;;;15.07;12.30;;;14.20;71.90;;;;;;4994333;28;20470;-77
2022/04/30 00:22:47;;;;;;;17.67;13.00;;;14.20;71.80;;;;;;4996858;28;20454;-77
2022/04/30 00:25:15;;;;;;;15.27;12.23;;;14.20;71.90;;;;;;4995559;28;20830;-77
2022/04/30 00:27:45;;;;;;;17.23;13.17;;;14.20;71.80;;;;;;4993249;28;20490;-77
2022/04/30 00:30:14;;;;;;;16.03;13.00;;;14.20;71.80;;;;;;4992585;28;20900;-77
2022/04/30 00:32:44;;;;;;;15.77;13.20;;;14.20;71.80;;;;;;4996235;28;20460;-76
2022/04/30 00:35:13;;;;;;;14.30;11.37;;;14.20;71.80;;;;;;4996788;28;20474;-77
2022/04/30 00:37:41;;;;;;;15.77;12.33;;;14.20;71.80;;;;;;4994317;28;20521;-77
2022/04/30 00:40:10;;;;;;;18.70;12.00;;;14.20;71.80;;;;;;4994738;28;20468;-77
2022/04/30 00:42:38;;;;;;;14.73;12.87;;;14.20;71.80;;;;;;4994500;28;20464;-76
2022/04/30 00:45:10;;;;;;;17.00;13.23;;;14.20;71.70;;;;;;4993946;28;20462;-77
2022/04/30 00:47:38;;;;;;;14.97;12.27;;;14.20;71.80;;;;;;4994873;28;20497;-77
2022/04/30 00:50:07;;;;;;;17.20;13.10;;;14.10;71.90;;;;;;4996029;28;20493;-76
2022/04/30 00:52:36;;;;;;;16.47;12.93;;;14.10;72.00;;;;;;4996397;28;20453;-77
2022/04/30 00:55:06;;;;;;;13.83;12.00;;;14.10;72.00;;;;;;4995888;28;20466;-77
2022/04/30 00:57:36;;;;;;;15.00;12.23;;;14.00;72.00;;;;;;4993305;28;20507;-77
2022/04/30 01:00:07;;;;;;;15.97;13.13;;;14.00;72.00;;;;;;4993773;28;20478;-77
2022/04/30 01:02:48;;;;;;;15.93;12.40;;;14.00;72.10;;;;;;4979846;28;20477;-76
2022/04/30 01:05:35;;;;;;;15.37;12.27;;;14.00;72.20;;;;;;4996026;28;20564;-76
2022/04/30 01:08:02;;;;;;;14.10;12.57;;;14.00;72.20;;;;;;4995486;28;20500;-77
2022/04/30 01:10:30;;;;;;;14.73;11.70;;;13.90;72.20;;;;;;4994838;28;20489;-77
2022/04/30 01:12:58;;;;;;;14.77;12.50;;;13.90;72.20;;;;;;4995915;28;20957;-77
2022/04/30 01:15:27;;;;;;;15.50;13.27;;;13.90;72.20;;;;;;4992092;28;20485;-77
2022/04/30 01:17:56;;;;;;;16.17;13.70;;;13.90;72.20;;;;;;4995906;28;20496;-77
2022/04/30 01:20:25;;;;;;;14.30;12.50;;;13.90;72.20;;;;;;4995508;28;20467;-77
2022/04/30 01:23:00;;;;;;;14.80;13.17;;;13.90;72.30;;;;;;4993631;28;20470;-77
2022/04/30 01:25:31;;;;;;;13.93;11.50;;;13.80;72.30;;;;;;4996040;28;20535;-77
2022/04/30 01:28:00;;;;;;;14.30;11.83;;;13.80;72.30;;;;;;4992996;28;20481;-77
2022/04/30 01:30:29;;;;;;;14.50;12.30;;;13.80;72.30;;;;;;4993628;28;20587;-76
2022/04/30 01:38:30;;;;;;;14.80;13.23;;;13.70;72.30;;;;;;4995515;28;20484;-77
2022/04/30 01:40:58;;;;;;;14.13;12.63;;;13.70;72.40;;;;;;4992264;28;20562;-77
2022/04/30 01:43:27;;;;;;;18.00;13.10;;;13.70;72.50;;;;;;4992521;28;20445;-76
2022/04/30 01:45:56;;;;;;;15.63;11.70;;;13.70;72.50;;;;;;4996671;28;20993;-76
2022/04/30 01:48:25;;;;;;;15.40;12.23;;;13.60;72.50;;;;;;4997110;28;20500;-76
2022/04/30 01:50:54;;;;;;;15.93;12.80;;;13.60;72.70;;;;;;4997751;28;20484;-77
2022/04/30 01:53:22;;;;;;;17.63;14.03;;;13.60;72.70;;;;;;4994857;28;20488;-76
2022/04/30 01:55:52;;;;;;;15.10;11.77;;;13.60;72.70;;;;;;4994113;28;21288;-76
2022/04/30 01:58:39;;;;;;;13.50;12.10;;;13.60;72.70;;;;;;4994861;28;20481;-75
2022/04/30 02:01:09;;;;;;;17.80;13.30;;;13.60;72.70;;;;;;4996657;28;20619;-76
2022/04/30 02:03:39;;;;;;;16.17;12.70;;;13.50;72.90;;;;;;4998033;28;20764;-76
2022/04/30 02:06:07;;;;;;;13.20;11.90;;;13.60;73.00;;;;;;4999321;28;20465;-77
2022/04/30 02:08:35;;;;;;;18.23;11.93;;;13.60;73.00;;;;;;4996245;28;20491;-76
2022/04/30 02:11:05;;;;;;;15.93;12.67;;;13.60;73.00;;;;;;4996956;28;21010;-78
2022/04/30 02:13:35;;;;;;;15.90;13.50;;;13.60;72.90;;;;;;4997788;28;20454;-77
2022/04/30 02:16:03;;;;;;;14.70;11.90;;;13.60;72.90;;;;;;5000165;28;20480;-77
2022/04/30 02:18:32;;;;;;;15.53;11.87;;;13.60;73.00;;;;;;4995893;28;20934;-76
2022/04/30 02:21:00;;;;;;;16.67;12.47;;;13.60;73.00;;;;;;5003517;28;20464;-76
2022/04/30 02:23:29;;;;;;;14.67;11.63;;;13.60;73.00;;;;;;4998625;28;20491;-78
2022/04/30 02:26:03;;;;;;;16.00;12.43;;;13.60;73.00;;;;;;4995762;28;21057;-76
2022/04/30 02:28:33;;;;;;;15.90;14.00;;;13.60;73.10;;;;;;4996395;28;21091;-75
2022/04/30 02:31:01;;;;;;;17.17;13.47;;;13.60;73.10;;;;;;4993282;28;20485;-77
2022/04/30 02:33:29;;;;;;;18.37;13.77;;;13.60;73.10;;;;;;5003032;28;20454;-77
2022/04/30 02:35:58;;;;;;;17.90;13.97;;;13.60;73.20;;;;;;4997091;28;20483;-77
2022/04/30 02:38:27;;;;;;;18.83;13.83;;;13.60;73.20;;;;;;4994079;28;20483;-76
2022/04/30 02:40:55;;;;;;;17.87;15.07;;;13.70;73.20;;;;;;4998447;28;20461;-78
2022/04/30 02:43:26;;;;;;;17.13;14.00;;;13.70;73.30;;;;;;5000216;28;20473;-77
2022/04/30 02:45:55;;;;;;;23.67;14.77;;;13.70;73.20;;;;;;5002619;28;20489;-76
2022/04/30 02:48:24;;;;;;;24.60;15.47;;;13.70;73.20;;;;;;4995840;28;20496;-77
2022/04/30 02:50:55;;;;;;;24.63;15.30;;;13.60;73.30;;;;;;4996240;28;20497;-77
2022/04/30 02:53:23;;;;;;;20.17;14.63;;;13.70;73.30;;;;;;4999045;28;20461;-78
2022/04/30 02:55:51;;;;;;;18.87;14.63;;;13.60;73.30;;;;;;4999020;28;21372;-78
2022/04/30 03:01:06;;;;;;;19.60;15.03;;;13.60;73.50;;;;;;4997210;28;20480;-77
2022/04/30 03:03:54;;;;;;;18.93;14.03;;;13.60;73.50;;;;;;5001776;28;20551;-77
2022/04/30 03:06:24;;;;;;;19.13;14.10;;;13.70;73.50;;;;;;5001222;28;20468;-76
2022/04/30 03:08:52;;;;;;;20.00;15.13;;;13.70;73.50;;;;;;4999286;28;20555;-76
2022/04/30 03:11:20;;;;;;;21.90;13.03;;;13.60;73.50;;;;;;4993853;28;20809;-76
2022/04/30 03:13:48;;;;;;;16.40;13.57;;;13.70;73.50;;;;;;5000259;28;20490;-77
2022/04/30 03:21:49;;;;;;;17.80;14.00;;;13.60;73.50;;;;;;4995482;28;20468;-76
2022/04/30 03:24:18;;;;;;;17.70;14.40;;;13.60;73.50;;;;;;4998422;28;20468;-76
2022/04/30 03:26:48;;;;;;;17.10;13.23;;;13.60;73.60;;;;;;4998909;28;20465;-77
2022/04/30 03:29:18;;;;;;;13.97;11.90;;;13.60;73.50;;;;;;4995737;28;20469;-77
2022/04/30 03:31:49;;;;;;;15.83;12.50;;;13.60;73.50;;;;;;5010597;28;20489;-77
2022/04/30 03:34:17;;;;;;;17.50;12.80;;;13.60;73.50;;;;;;4997036;28;20461;-78
2022/04/30 03:36:45;;;;;;;17.10;13.20;;;13.60;73.50;;;;;;4996939;28;21089;-76
2022/04/30 03:39:14;;;;;;;18.70;12.37;;;13.60;73.50;;;;;;4996370;28;20451;-76
2022/04/30 03:41:42;;;;;;;17.73;13.33;;;13.60;73.50;;;;;;4997340;28;20462;-76
2022/04/30 03:44:10;;;;;;;15.53;12.60;;;13.60;73.40;;;;;;4997715;28;21060;-77
2022/04/30 03:46:38;;;;;;;18.50;13.10;;;13.60;73.40;;;;;;4996831;28;20564;-77
2022/04/30 03:49:07;;;;;;;17.80;13.60;;;13.60;73.50;;;;;;4998543;28;20465;-77
2022/04/30 03:51:36;;;;;;;22.07;12.67;;;13.60;73.50;;;;;;4999393;28;20473;-77
2022/04/30 03:54:04;;;;;;;18.20;13.07;;;13.60;73.60;;;;;;4996450;28;20457;-77
2022/04/30 03:56:32;;;;;;;26.10;13.50;;;13.60;73.60;;;;;;4995505;28;20466;-76
2022/04/30 03:59:01;;;;;;;15.87;12.93;;;13.60;73.60;;;;;;4995455;28;20462;-76
2022/04/30 04:01:29;;;;;;;20.47;13.70;;;13.50;73.50;;;;;;4996094;28;20500;-76
2022/04/30 04:04:00;;;;;;;19.60;14.33;;;13.50;73.60;;;;;;4998840;28;20545;-77
2022/04/30 04:06:30;;;;;;;14.50;12.70;;;13.40;73.70;;;;;;4999251;28;20851;-77
2022/04/30 04:08:59;;;;;;;25.67;13.73;;;13.40;73.90;;;;;;4994678;28;21141;-75
2022/04/30 04:11:27;;;;;;;20.50;14.03;;;13.40;74.00;;;;;;4993842;28;20556;-75
2022/04/30 04:19:29;;;;;;;18.23;12.93;;;13.40;74.10;;;;;;4995236;28;20452;-75
2022/04/30 04:21:58;;;;;;;17.30;13.73;;;13.40;74.20;;;;;;4992730;28;20852;-75
2022/04/30 04:27:13;;;;;;;19.70;14.47;;;13.50;74.20;;;;;;5007400;28;20477;-74
2022/04/30 04:29:46;;;;;;;19.70;13.80;;;13.50;74.10;;;;;;4994319;28;20461;-76
2022/04/30 04:32:14;;;;;;;19.87;14.30;;;13.50;74.20;;;;;;4994547;28;20516;-77
2022/04/30 04:34:42;;;;;;;20.53;13.87;;;13.50;74.10;;;;;;4994040;28;20470;-76
2022/04/30 04:37:19;;;;;;;19.73;13.50;;;13.50;74.10;;;;;;4995271;28;21013;-77
2022/04/30 04:39:48;;;;;;;19.77;12.60;;;13.50;74.00;;;;;;4992834;28;20524;-77
2022/04/30 04:42:16;;;;;;;20.97;13.50;;;13.40;73.90;;;;;;4994397;28;20487;-77
2022/04/30 04:44:44;;;;;;;22.00;13.10;;;13.40;74.00;;;;;;4999412;28;20460;-78
2022/04/30 04:47:13;;;;;;;18.67;13.50;;;13.30;74.00;;;;;;4995701;28;20939;-75
2022/04/30 04:49:42;;;;;;;26.10;12.53;;;13.30;74.00;;;;;;4999469;28;20512;-75
2022/04/30 04:52:10;;;;;;;21.23;12.73;;;13.20;74.00;;;;;;4994102;28;20485;-76
2022/04/30 04:54:40;;;;;;;20.30;13.50;;;13.20;74.10;;;;;;4995124;28;20465;-78
2022/04/30 04:57:08;;;;;;;20.70;14.03;;;13.20;74.20;;;;;;4998544;28;20480;-77
2022/04/30 04:59:36;;;;;;;18.23;12.77;;;13.10;74.10;;;;;;4992821;28;20544;-76
2022/04/30 05:02:05;;;;;;;22.53;13.07;;;13.10;74.10;;;;;;4995940;28;20476;-77
2022/04/30 05:04:34;;;;;;;19.63;13.00;;;13.10;74.20;;;;;;4997982;28;21188;-77
2022/04/30 05:07:02;;;;;;;25.20;12.63;;;13.10;74.30;;;;;;4996456;28;20526;-78
2022/04/30 05:09:31;;;;;;;21.77;12.50;;;13.20;74.20;;;;;;4996057;28;20461;-75
2022/04/30 05:12:01;;;;;;;19.40;12.90;;;13.20;74.10;;;;;;4997481;28;20487;-77
2022/04/30 05:14:32;;;;;;;19.03;13.03;;;13.20;74.00;;;;;;4993470;28;20998;-77
2022/04/30 05:17:00;;;;;;;23.37;13.67;;;13.20;74.00;;;;;;4997055;28;20500;-77
2022/04/30 05:19:32;;;;;;;16.53;13.00;;;13.20;74.00;;;;;;4996976;28;20912;-78
2022/04/30 05:22:01;;;;;;;22.73;13.07;;;13.20;73.80;;;;;;4995985;28;21005;-77
2022/04/30 05:24:29;;;;;;;19.97;13.50;;;13.10;73.80;;;;;;4990054;28;20497;-77
2022/04/30 05:26:57;;;;;;;17.87;12.90;;;13.20;74.00;;;;;;4997646;28;20472;-78
2022/04/30 05:29:27;;;;;;;21.93;13.23;;;13.20;74.00;;;;;;4997531;28;20488;-76
2022/04/30 05:31:55;;;;;;;22.47;13.20;;;13.20;73.90;;;;;;4995024;28;20477;-76
2022/04/30 05:34:23;;;;;;;16.87;11.87;;;13.20;73.80;;;;;;4999348;28;20465;-75
2022/04/30 05:36:51;;;;;;;19.77;12.63;;;13.30;73.80;;;;;;4999542;28;20488;-76
2022/04/30 05:39:19;;;;;;;20.90;13.67;;;13.20;73.60;;;;;;5000700;28;20501;-76
2022/04/30 05:41:47;;;;;;;20.00;12.63;;;13.20;73.70;;;;;;5018064;28;20480;-76
2022/04/30 05:44:15;;;;;;;18.43;12.67;;;13.20;73.70;;;;;;5001144;28;20461;-77
2022/04/30 05:46:44;;;;;;;20.47;12.87;;;13.20;73.60;;;;;;4999465;28;20918;-76
2022/04/30 05:49:12;;;;;;;19.60;13.30;;;13.20;73.60;;;;;;4998878;28;20476;-78
2022/04/30 05:51:40;;;;;;;20.40;11.93;;;13.20;73.70;;;;;;5002402;28;20461;-77
2022/04/30 05:54:09;;;;;;;18.17;12.10;;;13.20;73.80;;;;;;5000989;28;20815;-77
2022/04/30 05:56:37;;;;;;;19.53;13.23;;;13.30;73.80;;;;;;5001512;28;20457;-77
2022/04/30 05:59:05;;;;;;;25.07;14.73;;;13.30;73.70;;;;;;5001772;28;20982;-78
2022/04/30 06:01:33;;;;;;;21.87;13.23;;;13.30;73.70;;;;;;5003253;28;20489;-76
2022/04/30 06:04:03;;;;;;;23.60;14.17;;;13.20;73.70;;;;;;5000117;28;20461;-78
2022/04/30 06:06:31;;;;;;;19.90;13.90;;;13.20;73.70;;;;;;5002362;28;20452;-78
2022/04/30 06:08:59;;;;;;;19.30;13.90;;;13.20;73.70;;;;;;5004615;28;20461;-77
2022/04/30 06:11:27;;;;;;;18.00;13.60;;;13.20;73.80;;;;;;4999145;28;20469;-76
2022/04/30 06:13:55;;;;;;;23.40;13.30;;;13.10;73.70;;;;;;5000699;28;21013;-76
2022/04/30 06:16:23;;;;;;;17.23;12.40;;;13.10;73.80;;;;;;4997305;28;20476;-75
2022/04/30 06:18:51;;;;;;;20.13;14.00;;;13.20;73.90;;;;;;5001275;28;20497;-77
2022/04/30 06:21:40;;;;;;;21.40;14.83;;;13.20;73.80;;;;;;5003469;28;20461;-77
2022/04/30 06:24:08;;;;;;;19.80;13.67;;;13.20;73.90;;;;;;5002026;28;21123;-77
2022/04/30 06:26:36;;;;;;;23.60;14.60;;;13.20;73.80;;;;;;4997025;28;20471;-77
2022/04/30 06:29:04;;;;;;;20.67;13.90;;;13.20;73.50;;;;;;4997566;28;20472;-77
2022/04/30 06:31:32;;;;;;;22.63;15.00;;;13.20;73.60;;;;;;4995057;28;20481;-76
2022/04/30 06:34:00;;;;;;;18.53;13.13;;;13.30;73.60;;;;;;4998196;28;20474;-77
2022/04/30 06:36:28;;;;;;;25.23;14.17;;;13.30;73.60;;;;;;4994877;28;21045;-76
2022/04/30 06:38:58;;;;;;;21.00;13.43;;;13.40;73.60;;;;;;4994517;28;20473;-76
2022/04/30 06:41:26;;;;;;;20.57;14.17;;;13.40;73.50;;;;;;4996417;28;21261;-78
2022/04/30 06:43:54;;;;;;;25.13;13.93;;;13.40;73.50;;;;;;5003139;28;21071;-78
2022/04/30 06:46:22;;;;;;;20.57;13.90;;;13.40;73.50;;;;;;4999745;28;20608;-77
2022/04/30 06:48:50;;;;;;;18.43;13.07;;;13.50;73.20;;;;;;4995223;28;21535;-77
2022/04/30 06:51:18;;;;;;;21.57;14.17;;;13.40;73.20;;;;;;4997312;28;20473;-77
2022/04/30 06:59:18;;;;;;;18.50;12.17;;;13.50;73.30;;;;;;5001663;28;20453;-76
2022/04/30 07:01:51;;;;;;;21.13;13.60;;;13.60;73.20;;;;;;4995299;28;20545;-77
2022/04/30 07:04:20;;;;;;;19.17;12.97;;;13.70;73.10;;;;;;4998536;28;20482;-77
2022/04/30 07:06:48;;;;;;;22.13;12.60;;;13.70;72.90;;;;;;4999612;28;20549;-77
2022/04/30 07:09:16;;;;;;;18.33;14.00;;;13.70;73.00;;;;;;4999603;28;20449;-76
2022/04/30 07:11:45;;;;;;;20.27;13.60;;;13.70;72.70;;;;;;4995918;28;21013;-75
2022/04/30 07:14:13;;;;;;;19.73;12.77;;;13.70;72.90;;;;;;4997837;28;20486;-75
2022/04/30 07:16:42;;;;;;;21.47;13.90;;;13.70;72.70;;;;;;5001988;28;20482;-75
2022/04/30 07:19:10;;;;;;;24.33;14.20;;;13.70;72.70;;;;;;4997577;28;20469;-76
2022/04/30 07:21:38;;;;;;;20.40;13.70;;;13.70;72.70;;;;;;4997305;28;20476;-78
2022/04/30 07:24:06;;;;;;;18.60;13.83;;;13.70;72.70;;;;;;5001778;28;20457;-74
2022/04/30 07:26:34;;;;;;;18.03;13.30;;;13.80;72.80;;;;;;4997011;28;20460;-77
2022/04/30 07:29:03;;;;;;;16.80;13.60;;;13.80;72.60;;;;;;4996056;28;20461;-78
2022/04/30 07:31:31;;;;;;;21.30;13.33;;;13.70;72.50;;;;;;4999319;28;20477;-76
2022/04/30 07:34:00;;;;;;;16.93;13.77;;;13.70;72.70;;;;;;5001791;28;20524;-76
2022/04/30 07:36:27;;;;;;;20.83;14.00;;;13.80;72.70;;;;;;4997970;28;20470;-76
2022/04/30 07:38:55;;;;;;;20.10;14.20;;;13.80;72.70;;;;;;5000311;28;20831;-77
2022/04/30 07:41:23;;;;;;;18.83;14.17;;;13.90;72.70;;;;;;4997316;28;20464;-76
2022/04/30 07:43:51;;;;;;;18.17;13.63;;;13.90;72.70;;;;;;4999057;28;20461;-76
2022/04/30 07:46:22;;;;;;;21.47;14.33;;;14.00;72.70;;;;;;4996059;28;20481;-77
2022/04/30 07:48:50;;;;;;;20.33;12.97;;;14.00;72.50;;;;;;4995891;28;20526;-77
2022/04/30 07:51:33;;;;;;;20.63;13.37;;;14.10;72.60;;;;;;5000986;28;20470;-78
2022/04/30 07:54:03;;;;;;;18.87;13.17;;;14.10;72.40;;;;;;4995826;28;20481;-77
2022/04/30 07:56:31;;;;;;;19.73;13.90;;;14.10;72.50;;;;;;4997684;28;20478;-77
2022/04/30 07:58:59;;;;;;;23.53;13.63;;;14.10;72.40;;;;;;4997857;28;20978;-78
2022/04/30 08:01:28;;;;;;;19.43;13.87;;;14.20;72.40;;;;;;4998596;28;20475;-77
2022/04/30 08:03:56;;;;;;;24.07;14.33;;;14.20;72.40;;;;;;5004322;28;20895;-77
2022/04/30 08:06:25;;;;;;;20.53;14.10;;;14.30;72.40;;;;;;5003752;28;20974;-77
2022/04/30 08:08:53;;;;;;;18.50;13.60;;;14.30;72.40;;;;;;5004865;28;20843;-77
2022/04/30 08:11:21;;;;;;;16.87;13.30;;;14.40;72.30;;;;;;4998997;28;20449;-78
2022/04/30 08:13:49;;;;;;;22.20;15.30;;;14.40;72.30;;;;;;5003307;28;20584;-76
2022/04/30 08:16:17;;;;;;;22.17;15.37;;;14.50;72.10;;;;;;5006296;28;20580;-76
2022/04/30 08:18:46;;;;;;;19.07;14.00;;;14.50;72.10;;;;;;5000935;28;20476;-77
2022/04/30 08:21:14;;;;;;;19.27;15.17;;;14.50;72.20;;;;;;5004999;28;20472;-76
2022/04/30 08:23:42;;;;;;;19.73;14.33;;;14.60;72.20;;;;;;5001479;28;20449;-77
2022/04/30 08:26:10;;;;;;;19.60;13.47;;;14.60;72.10;;;;;;5005634;28;20444;-77
2022/04/30 08:28:38;;;;;;;19.60;14.40;;;14.60;72.20;;;;;;5002172;28;20819;-76
2022/04/30 08:31:06;;;;;;;18.80;14.33;;;14.60;72.30;;;;;;5004522;28;20800;-77
2022/04/30 08:33:34;;;;;;;18.83;14.07;;;14.70;72.30;;;;;;5000570;28;20539;-78
2022/04/30 08:36:04;;;;;;;18.30;14.00;;;14.70;72.10;;;;;;5000211;28;20466;-76
2022/04/30 08:38:32;;;;;;;19.17;14.13;;;14.80;72.30;;;;;;5009762;28;20484;-75
2022/04/30 08:41:00;;;;;;;21.70;14.33;;;14.80;72.20;;;;;;5012320;28;20471;-75
2022/04/30 08:43:29;;;;;;;20.47;14.30;;;14.80;71.90;;;;;;5003731;28;20975;-75
2022/04/30 08:45:58;;;;;;;20.07;14.70;;;14.80;71.90;;;;;;5006550;28;21021;-76
2022/04/30 08:48:30;;;;;;;18.27;14.53;;;14.80;72.00;;;;;;5004467;28;21200;-76
2022/04/30 08:50:58;;;;;;;19.77;13.60;;;14.90;71.80;;;;;;4997627;28;20966;-76
2022/04/30 08:53:27;;;;;;;17.03;14.13;;;14.90;71.90;;;;;;5003725;28;20475;-77
2022/04/30 08:55:55;;;;;;;19.60;12.93;;;15.00;71.80;;;;;;5002757;28;20476;-76
2022/04/30 08:58:24;;;;;;;20.43;14.60;;;15.10;71.70;;;;;;4999153;28;20484;-76
2022/04/30 09:00:53;;;;;;;17.93;14.50;;;15.10;71.50;;;;;;5000866;28;20938;-77
2022/04/30 09:03:21;;;;;;;17.87;13.77;;;15.10;71.10;;;;;;4997199;28;20481;-76
2022/04/30 09:05:50;;;;;;;17.70;13.53;;;15.10;71.20;;;;;;4998861;28;20468;-77
2022/04/30 09:08:18;;;;;;;17.10;12.27;;;15.20;71.30;;;;;;5006616;28;21090;-76
2022/04/30 09:10:48;;;;;;;23.30;15.50;;;15.20;71.20;;;;;;5008024;28;20489;-77
2022/04/30 09:13:18;;;;;;;19.57;14.83;;;15.30;71.30;;;;;;5011181;28;20522;-77
2022/04/30 09:15:55;;;;;;;21.03;13.53;;;15.30;70.40;;;;;;5009483;28;20469;-76
2022/04/30 09:18:24;;;;;;;19.90;13.90;;;15.40;70.90;;;;;;5006909;28;20574;-75
2022/04/30 09:20:54;;;;;;;18.80;13.53;;;15.40;71.10;;;;;;5002226;28;20481;-77
2022/04/30 09:23:26;;;;;;;22.87;13.37;;;15.60;71.10;;;;;;5004895;28;20468;-78
2022/04/30 09:25:57;;;;;;;19.40;15.30;;;15.60;70.60;;;;;;5008684;28;20465;-79
2022/04/30 09:28:27;;;;;;;18.77;13.77;;;15.70;70.40;;;;;;5005220;28;20476;-77
2022/04/30 09:31:06;;;;;;;18.60;13.90;;;15.70;70.40;;;;;;5000747;28;20514;-77
2022/04/30 09:33:35;;;;;;;16.63;13.17;;;15.70;70.10;;;;;;5000796;28;20531;-77
2022/04/30 09:38:50;;;;;;;17.50;13.30;;;15.70;70.10;;;;;;5003343;28;21351;-77
2022/04/30 09:41:24;;;;;;;22.20;14.90;;;15.70;70.00;;;;;;5002717;28;20480;-78
2022/04/30 09:44:04;;;;;;;24.30;13.37;;;15.80;69.80;;;;;;5002671;28;20553;-77
2022/04/30 09:46:36;;;;;;;21.80;13.90;;;15.80;69.90;;;;;;4999254;28;20535;-78
2022/04/30 09:54:38;;;;;;;30.93;15.20;;;16.00;69.50;;;;;;5006822;28;20476;-78
2022/04/30 09:57:09;;;;;;;22.30;14.57;;;16.00;69.50;;;;;;5008785;28;20487;-77
2022/04/30 09:59:39;;;;;;;23.03;15.00;;;16.10;69.30;;;;;;5010461;28;20984;-77
2022/04/30 10:02:09;;;;;;;22.03;14.47;;;16.10;69.30;;;;;;5002064;28;20479;-78
2022/04/30 10:04:38;;;;;;;18.23;13.90;;;16.10;69.30;;;;;;5004839;28;20528;-76
2022/04/30 10:07:07;;;;;;;17.00;13.63;;;16.20;69.20;;;;;;5006132;28;20472;-77
2022/04/30 10:09:37;;;;;;;18.23;13.73;;;16.20;69.00;;;;;;5010826;28;20479;-76
2022/04/30 10:12:15;;;;;;;19.33;14.67;;;16.20;68.90;;;;;;5007246;28;20496;-76
2022/04/30 10:15:06;;;;;;;22.80;15.20;;;16.20;68.80;;;;;;5009122;28;20499;-76
2022/04/30 10:17:37;;;;;;;15.27;12.80;;;16.10;68.90;;;;;;5000730;28;20493;-76
2022/04/30 10:20:12;;;;;;;20.60;15.60;;;16.20;68.90;;;;;;5000507;28;20462;-77
2022/04/30 10:22:50;;;;;;;19.60;14.60;;;16.20;68.60;;;;;;5003964;28;20460;-76
2022/04/30 10:25:19;;;;;;;18.90;14.63;;;16.20;68.70;;;;;;5002529;28;20442;-76
2022/04/30 10:27:49;;;;;;;17.07;13.00;;;16.20;68.70;;;;;;5005878;28;20489;-76
2022/04/30 10:30:23;;;;;;;18.10;14.30;;;16.30;68.70;;;;;;5006332;28;20966;-76
2022/04/30 10:33:01;;;;;;;15.67;13.23;;;16.30;68.60;;;;;;5002598;28;20456;-76
2022/04/30 10:35:32;;;;;;;20.30;14.90;;;16.30;68.60;;;;;;5004813;28;21270;-76
2022/04/30 10:38:13;;;;;;;20.07;14.40;;;16.30;68.60;;;;;;5003868;28;20515;-76
2022/04/30 10:40:45;;;;;;;20.63;14.63;;;16.30;68.40;;;;;;5001985;28;20450;-77
2022/04/30 10:43:26;;;;;;;20.40;14.73;;;16.30;68.50;;;;;;4999767;28;20499;-76
2022/04/30 10:45:55;;;;;;;23.33;14.60;;;16.30;68.40;;;;;;5001252;28;20474;-78
2022/04/30 10:48:24;;;;;;;19.77;13.57;;;16.30;68.40;;;;;;4999333;28;20500;-78
2022/04/30 10:51:04;;;;;;;52.97;17.40;;;16.30;68.40;;;;;;4997178;28;20460;-78
2022/04/30 10:53:34;;;;;;;46.63;17.90;;;16.30;68.30;;;;;;4998959;28;20448;-79
2022/04/30 10:56:03;;;;;;;26.67;14.50;;;16.30;68.30;;;;;;5003811;28;20472;-79
2022/04/30 10:58:33;;;;;;;23.57;14.33;;;16.30;68.30;;;;;;5009284;28;21027;-79
2022/04/30 11:01:11;;;;;;;36.40;16.37;;;16.30;68.30;;;;;;5005673;28;20473;-78
2022/04/30 11:03:42;;;;;;;97.63;19.87;;;16.40;68.30;;;;;;5001531;28;20460;-79
2022/04/30 11:06:11;;;;;;;74.77;19.00;;;16.40;68.40;;;;;;4999481;28;20552;-78
2022/04/30 11:08:40;;;;;;;31.33;15.40;;;16.40;68.40;;;;;;5002179;28;20484;-78
2022/04/30 11:11:08;;;;;;;50.60;15.80;;;16.50;68.30;;;;;;5000665;28;20858;-77
2022/04/30 11:13:37;;;;;;;55.23;17.53;;;16.50;68.30;;;;;;5008653;28;20487;-77
2022/04/30 11:16:14;;;;;;;61.67;19.23;;;16.50;68.20;;;;;;5014298;28;20489;-78
2022/04/30 11:18:42;;;;;;;36.80;16.17;;;16.50;68.20;;;;;;4997741;28;20468;-78
2022/04/30 11:21:10;;;;;;;23.83;14.53;;;16.50;68.20;;;;;;5002941;28;20451;-77
2022/04/30 11:23:38;;;;;;;24.13;15.23;;;16.50;68.20;;;;;;5001348;28;20461;-77
2022/04/30 11:26:17;;;;;;;24.80;15.00;;;16.50;68.20;;;;;;5000376;28;20823;-78
2022/04/30 11:28:49;;;;;;;29.70;15.30;;;16.50;68.10;;;;;;5004391;28;20496;-78
2022/04/30 11:31:20;;;;;;;23.00;14.40;;;16.50;68.00;;;;;;5003767;28;20472;-77
2022/04/30 11:33:48;;;;;;;22.23;14.60;;;16.50;68.00;;;;;;5004286;28;20452;-77
2022/04/30 11:36:16;;;;;;;25.20;17.00;;;16.50;68.00;;;;;;5000244;28;20468;-77
2022/04/30 11:38:52;;;;;;;27.90;15.73;;;16.50;68.10;;;;;;5000485;28;20951;-77
2022/04/30 11:41:20;;;;;;;28.37;15.40;;;16.50;68.40;;;;;;4998254;28;20533;-77
2022/04/30 11:44:00;;;;;;;30.30;17.10;;;16.40;68.50;;;;;;5003595;28;20470;-80
2022/04/30 11:46:28;;;;;;;33.10;17.60;;;16.40;68.80;;;;;;4998522;28;20473;-78
2022/04/30 11:48:56;;;;;;;26.40;15.50;;;16.40;69.00;;;;;;5006747;28;20512;-80
2022/04/30 11:51:29;;;;;;;24.70;16.83;;;16.50;69.10;;;;;;5001084;28;20647;-80
2022/04/30 11:53:57;;;;;;;31.27;16.20;;;16.50;69.30;;;;;;5005682;28;21223;-78
2022/04/30 11:56:27;;;;;;;29.97;18.03;;;16.50;69.40;;;;;;4994435;28;20472;-79
2022/04/30 11:58:56;;;;;;;43.63;17.43;;;16.50;69.40;;;;;;4997515;28;20473;-78
2022/04/30 12:01:31;;;;;;;37.33;16.43;;;16.50;69.50;;;;;;5006815;28;20468;-80
2022/04/30 12:04:03;;;;;;;33.67;16.70;;;16.50;69.60;;;;;;4998290;28;20548;-79
2022/04/30 12:06:33;;;;;;;131.20;21.50;;;16.50;69.70;;;;;;5001155;28;20525;-79
2022/04/30 12:09:01;;;;;;;237.87;30.50;;;16.50;69.80;;;;;;4998312;28;20504;-79
2022/04/30 12:11:41;;;;;;;172.53;26.70;;;16.50;70.00;;;;;;4997710;28;20450;-79
2022/04/30 12:14:10;;;;;;;479.90;46.23;;;16.50;70.00;;;;;;5002027;28;20458;-78
2022/04/30 12:16:41;;;;;;;61.93;18.70;;;16.50;69.90;;;;;;5002459;28;20860;-78
2022/04/30 12:25:00;;;;;;;35.07;16.73;;;16.40;70.30;;;;;;4993449;28;20556;-76
2022/04/30 12:27:29;;;;;;;204.80;26.87;;;16.30;70.40;;;;;;5000277;28;20495;-77
2022/04/30 12:30:01;;;;;;;99.07;21.87;;;16.30;70.40;;;;;;5000180;28;21281;-75
2022/04/30 12:32:33;;;;;;;22.10;15.80;;;16.30;70.60;;;;;;5000366;28;20579;-76
2022/04/30 12:35:02;;;;;;;19.70;15.20;;;16.30;70.60;;;;;;4996416;28;20464;-76
2022/04/30 12:37:31;;;;;;;21.60;16.13;;;16.30;70.50;;;;;;5001788;28;20496;-78
2022/04/30 12:39:59;;;;;;;17.03;14.57;;;16.20;70.70;;;;;;4993909;28;20442;-77
2022/04/30 12:42:27;;;;;;;20.70;15.03;;;16.10;70.70;;;;;;4996379;28;20455;-77
2022/04/30 12:44:55;;;;;;;18.37;14.93;;;16.10;70.80;;;;;;4996020;28;20460;-76
2022/04/30 12:47:23;;;;;;;25.73;15.73;;;16.00;71.00;;;;;;5001674;28;20477;-76
2022/04/30 12:49:52;;;;;;;19.50;15.53;;;16.00;71.10;;;;;;4996687;28;20465;-75
2022/04/30 12:52:20;;;;;;;19.03;16.37;;;15.90;71.20;;;;;;4999235;28;21077;-76
2022/04/30 12:54:49;;;;;;;19.10;16.37;;;15.90;71.40;;;;;;4997964;28;20456;-77
2022/04/30 12:57:17;;;;;;;25.20;18.00;;;15.80;71.30;;;;;;5002764;28;20484;-79
2022/04/30 12:59:45;;;;;;;29.17;17.30;;;15.80;71.50;;;;;;4998910;28;20452;-79
2022/04/30 13:02:14;;;;;;;22.37;17.00;;;15.80;71.60;;;;;;4995431;28;21171;-78
2022/04/30 13:04:42;;;;;;;25.90;17.60;;;15.80;71.60;;;;;;5002894;28;20477;-79
2022/04/30 13:07:12;;;;;;;26.63;19.10;;;15.80;71.70;;;;;;5000120;28;20474;-76
2022/04/30 13:15:11;;;;;;;43.77;21.17;;;15.70;72.20;;;;;;5000161;28;20458;-77
2022/04/30 13:17:39;;;;;;;40.67;22.03;;;15.70;72.40;;;;;;5003347;28;20479;-77
2022/04/30 13:20:10;;;;;;;22.90;18.70;;;15.70;72.60;;;;;;4997550;28;20461;-77
2022/04/30 13:22:40;;;;;;;34.53;20.60;;;15.70;72.80;;;;;;5003789;28;20460;-78
2022/04/30 13:25:11;;;;;;;36.63;23.33;;;15.70;72.90;;;;;;5002331;28;20452;-80